Tarrytown, NY

10:23 AM EDT on May 27, 2015 (GMT -0400)
KNYTARRY3 | | Change Station
CLOSE
Current Station
Personal Weather Station
Location: Tarrytown, NY
Elevation: 341 ft
Nearby Weather Stations

Elev 341 ft 41.05 °N, 73.85 °W | Updated 229 days ago

Mostly Cloudy
Mostly Cloudy
82 °F
Feels Like 84 °F
N
12
Wind Variable Wind from South
Gusts 17 mph

Today
High -- | Low -- °F
--% Chance of Precip.
Yesterday
High -- | Low -- °F
Precip. -- in
5:28 AM 8:17 PM
Waxing Gibbous, 67% visible
Pressure 30.16 in
Visibility 8.0 miles
Clouds Mostly Cloudy 1300 ft
Heat Index 84 °F
Dew Point 65 °F
Humidity 57%
Rainfall in
Snow Depth Not available.
UV 4 out of 12
Pollen 4.90 out of 12
Air Quality Not available.
Flu Activity Widespread
METAR KHPN 271356Z VRB05KT 8SM BKN013 23/19 A3017 RMK AO2 SLP213 T02330189

More Conditions Fewer Conditions

Pressure 30.16 in
Visibility 8.0 miles
Clouds Mostly Cloudy 1300 ft
Heat Index 84 °F
Dew Point 65 °F
Humidity 57%
Rainfall in
Snow Depth Not available.
UV 4 out of 12
Pollen 4.90 out of 12
Air Quality Not available.
Flu Activity Widespread
METAR KHPN 271356Z VRB05KT 8SM BKN013 23/19 A3017 RMK AO2 SLP213 T02330189

More Conditions Fewer Conditions

10-Day Weather Forecast

Almanac

Astronomy

May. 27, 2015 Rise Set
Actual Time
Civil Twilight
Nautical Twilight
Astronomical Twilight
Moon
Length of Visible Light
Length of Day
Tomorrow will be .
, % of the Moon is Illuminated

Today's Extremes

State Highs State Lows

Community

WunderPhotos

Upload Photos

1,824,680 photos uploaded!

WunderBlogs® & News

Nearby

Air Quality

  Air Quality AQ Index Pollutant
Not available.

Snow Depth

Station Depth Elevation

Earthquake Activity

City Distance Mag. Time & Date
Minimum magnitude displayed is 2.5.

Coastal Water Temperatures

Place Temperature

Stations

Nearby Weather Stations

Station Location Temp. Windchill Dew Point Humidity Wind Precip. Elev Updated Type